sensor_id;sensor_type;location;lat;lon;timestamp;temperature;humidity
1468;DHT22;727;48.892;9.544;2023-03-19T00:00:14;8.00;99.90
1468;DHT22;727;48.892;9.544;2023-03-19T00:02:42;7.90;99.90
1468;DHT22;727;48.892;9.544;2023-03-19T00:05:15;7.90;99.90
1468;DHT22;727;48.892;9.544;2023-03-19T00:07:43;7.80;99.90
1468;DHT22;727;48.892;9.544;2023-03-19T00:10:10;7.90;99.90
1468;DHT22;727;48.892;9.544;2023-03-19T00:12:37;7.80;99.90
1468;DHT22;727;48.892;9.544;2023-03-19T00:15:05;7.80;99.90
1468;DHT22;727;48.892;9.544;2023-03-19T00:17:33;7.90;99.90
1468;DHT22;727;48.892;9.544;2023-03-19T00:20:00;7.90;99.90
1468;DHT22;727;48.892;9.544;2023-03-19T00:22:28;8.00;99.90
1468;DHT22;727;48.892;9.544;2023-03-19T00:24:55;8.00;99.90
1468;DHT22;727;48.892;9.544;2023-03-19T00:27:21;8.00;99.90
1468;DHT22;727;48.892;9.544;2023-03-19T00:29:48;8.00;99.90
1468;DHT22;727;48.892;9.544;2023-03-19T00:32:15;8.00;99.90
1468;DHT22;727;48.892;9.544;2023-03-19T00:34:42;8.00;99.90
1468;DHT22;727;48.892;9.544;2023-03-19T00:37:09;8.00;99.90
1468;DHT22;727;48.892;9.544;2023-03-19T00:39:38;8.00;99.90
1468;DHT22;727;48.892;9.544;2023-03-19T00:42:05;8.00;99.90
1468;DHT22;727;48.892;9.544;2023-03-19T00:44:32;8.00;99.90
1468;DHT22;727;48.892;9.544;2023-03-19T00:46:58;8.00;99.90
1468;DHT22;727;48.892;9.544;2023-03-19T00:49:25;7.90;99.90
1468;DHT22;727;48.892;9.544;2023-03-19T00:51:52;8.00;99.90
1468;DHT22;727;48.892;9.544;2023-03-19T00:54:19;7.90;99.90
1468;DHT22;727;48.892;9.544;2023-03-19T00:56:47;8.00;99.90
1468;DHT22;727;48.892;9.544;2023-03-19T00:59:14;8.10;99.90
1468;DHT22;727;48.892;9.544;2023-03-19T01:01:41;8.20;99.90
1468;DHT22;727;48.892;9.544;2023-03-19T01:04:08;8.20;99.90
1468;DHT22;727;48.892;9.544;2023-03-19T01:06:35;8.20;99.90
1468;DHT22;727;48.892;9.544;2023-03-19T01:09:02;8.10;99.90
1468;DHT22;727;48.892;9.544;2023-03-19T01:11:29;8.20;99.90
1468;DHT22;727;48.892;9.544;2023-03-19T01:13:58;8.20;99.90
1468;DHT22;727;48.892;9.544;2023-03-19T01:16:24;8.20;99.90
1468;DHT22;727;48.892;9.544;2023-03-19T01:18:51;8.30;99.90
1468;DHT22;727;48.892;9.544;2023-03-19T01:21:18;8.40;99.90
1468;DHT22;727;48.892;9.544;2023-03-19T01:23:45;8.40;99.90
1468;DHT22;727;48.892;9.544;2023-03-19T01:26:12;8.40;99.90
1468;DHT22;727;48.892;9.544;2023-03-19T01:28:39;8.40;99.90
1468;DHT22;727;48.892;9.544;2023-03-19T01:31:08;8.50;99.90
1468;DHT22;727;48.892;9.544;2023-03-19T01:33:35;8.50;99.90
1468;DHT22;727;48.892;9.544;2023-03-19T01:36:03;8.50;99.90
1468;DHT22;727;48.892;9.544;2023-03-19T01:38:30;8.40;99.90
1468;DHT22;727;48.892;9.544;2023-03-19T01:40:57;8.40;99.90
1468;DHT22;727;48.892;9.544;2023-03-19T01:43:25;8.40;99.90
1468;DHT22;727;48.892;9.544;2023-03-19T01:45:56;8.40;99.90
1468;DHT22;727;48.892;9.544;2023-03-19T01:48:28;8.50;99.90
1468;DHT22;727;48.892;9.544;2023-03-19T01:50:55;8.50;99.90
1468;DHT22;727;48.892;9.544;2023-03-19T01:53:25;8.50;99.90
1468;DHT22;727;48.892;9.544;2023-03-19T01:55:57;8.60;99.90
1468;DHT22;727;48.892;9.544;2023-03-19T01:58:25;8.50;99.90
1468;DHT22;727;48.892;9.544;2023-03-19T02:00:52;8.50;99.90
1468;DHT22;727;48.892;9.544;2023-03-19T02:03:19;8.50;99.90
1468;DHT22;727;48.892;9.544;2023-03-19T02:05:49;8.50;99.90
1468;DHT22;727;48.892;9.544;2023-03-19T02:08:18;8.50;99.90
1468;DHT22;727;48.892;9.544;2023-03-19T02:10:47;8.50;99.90
1468;DHT22;727;48.892;9.544;2023-03-19T02:13:15;8.50;99.90
1468;DHT22;727;48.892;9.544;2023-03-19T02:15:41;8.50;99.90
1468;DHT22;727;48.892;9.544;2023-03-19T02:18:08;8.50;99.90
1468;DHT22;727;48.892;9.544;2023-03-19T02:20:43;8.50;99.90
1468;DHT22;727;48.892;9.544;2023-03-19T02:23:20;8.50;99.90
1468;DHT22;727;48.892;9.544;2023-03-19T02:26:00;8.50;99.90
1468;DHT22;727;48.892;9.544;2023-03-19T02:28:29;8.50;99.90
1468;DHT22;727;48.892;9.544;2023-03-19T02:30:57;8.50;99.90
1468;DHT22;727;48.892;9.544;2023-03-19T02:33:25;8.50;99.90
1468;DHT22;727;48.892;9.544;2023-03-19T02:35:52;8.60;99.90
1468;DHT22;727;48.892;9.544;2023-03-19T02:38:19;8.50;99.90
1468;DHT22;727;48.892;9.544;2023-03-19T02:40:54;8.50;99.90
1468;DHT22;727;48.892;9.544;2023-03-19T02:43:23;8.50;99.90
1468;DHT22;727;48.892;9.544;2023-03-19T02:45:50;8.60;99.90
1468;DHT22;727;48.892;9.544;2023-03-19T02:48:17;8.60;99.90
1468;DHT22;727;48.892;9.544;2023-03-19T02:50:44;8.60;99.90
1468;DHT22;727;48.892;9.544;2023-03-19T02:53:11;8.60;99.90
1468;DHT22;727;48.892;9.544;2023-03-19T02:55:37;8.60;99.90
1468;DHT22;727;48.892;9.544;2023-03-19T02:58:06;8.60;99.90
1468;DHT22;727;48.892;9.544;2023-03-19T03:00:33;8.60;99.90
1468;DHT22;727;48.892;9.544;2023-03-19T03:03:00;8.60;99.90
1468;DHT22;727;48.892;9.544;2023-03-19T03:05:28;8.50;99.90
1468;DHT22;727;48.892;9.544;2023-03-19T03:07:54;8.60;99.90
1468;DHT22;727;48.892;9.544;2023-03-19T03:10:21;8.60;99.90
1468;DHT22;727;48.892;9.544;2023-03-19T03:12:48;8.60;99.90
1468;DHT22;727;48.892;9.544;2023-03-19T03:15:17;8.60;99.90
1468;DHT22;727;48.892;9.544;2023-03-19T03:17:44;8.70;99.90
1468;DHT22;727;48.892;9.544;2023-03-19T03:20:13;8.60;99.90
1468;DHT22;727;48.892;9.544;2023-03-19T03:22:40;8.60;99.90
1468;DHT22;727;48.892;9.544;2023-03-19T03:25:08;8.70;99.90
1468;DHT22;727;48.892;9.544;2023-03-19T03:27:36;8.80;99.90
1468;DHT22;727;48.892;9.544;2023-03-19T03:30:03;8.80;99.90
1468;DHT22;727;48.892;9.544;2023-03-19T03:32:32;8.70;99.90
1468;DHT22;727;48.892;9.544;2023-03-19T03:34:58;8.80;99.90
1468;DHT22;727;48.892;9.544;2023-03-19T03:37:26;8.90;99.90
1468;DHT22;727;48.892;9.544;2023-03-19T03:39:53;8.80;99.90
1468;DHT22;727;48.892;9.544;2023-03-19T03:42:19;8.80;99.90
1468;DHT22;727;48.892;9.544;2023-03-19T03:44:46;8.80;99.90
1468;DHT22;727;48.892;9.544;2023-03-19T03:47:13;8.80;99.90
1468;DHT22;727;48.892;9.544;2023-03-19T03:49:41;8.90;99.90
1468;DHT22;727;48.892;9.544;2023-03-19T03:52:10;8.90;99.90
1468;DHT22;727;48.892;9.544;2023-03-19T03:54:38;8.80;99.90
1468;DHT22;727;48.892;9.544;2023-03-19T03:57:06;8.80;99.90
1468;DHT22;727;48.892;9.544;2023-03-19T03:59:34;8.80;99.90
1468;DHT22;727;48.892;9.544;2023-03-19T04:02:01;8.80;99.90
1468;DHT22;727;48.892;9.544;2023-03-19T04:04:28;8.80;99.90
1468;DHT22;727;48.892;9.544;2023-03-19T04:06:56;8.70;99.90
1468;DHT22;727;48.892;9.544;2023-03-19T04:09:23;8.70;99.90
1468;DHT22;727;48.892;9.544;2023-03-19T04:11:50;8.70;99.90
1468;DHT22;727;48.892;9.544;2023-03-19T04:14:17;8.60;99.90
1468;DHT22;727;48.892;9.544;2023-03-19T04:16:44;8.50;99.90
1468;DHT22;727;48.892;9.544;2023-03-19T04:19:11;8.50;99.90
1468;DHT22;727;48.892;9.544;2023-03-19T04:21:37;8.50;99.90
1468;DHT22;727;48.892;9.544;2023-03-19T04:24:06;8.50;99.90
1468;DHT22;727;48.892;9.544;2023-03-19T04:26:34;8.50;99.90
1468;DHT22;727;48.892;9.544;2023-03-19T04:29:01;8.40;99.90
1468;DHT22;727;48.892;9.544;2023-03-19T04:31:28;8.40;99.90
1468;DHT22;727;48.892;9.544;2023-03-19T04:33:55;8.40;99.90
1468;DHT22;727;48.892;9.544;2023-03-19T04:36:22;8.40;99.90
1468;DHT22;727;48.892;9.544;2023-03-19T04:38:49;8.50;99.90
1468;DHT22;727;48.892;9.544;2023-03-19T04:41:17;8.50;99.90
1468;DHT22;727;48.892;9.544;2023-03-19T04:43:43;8.50;99.90
1468;DHT22;727;48.892;9.544;2023-03-19T04:46:10;8.40;99.90
1468;DHT22;727;48.892;9.544;2023-03-19T04:48:37;8.40;99.90
1468;DHT22;727;48.892;9.544;2023-03-19T04:51:04;8.40;99.90
1468;DHT22;727;48.892;9.544;2023-03-19T04:53:34;8.40;99.90
1468;DHT22;727;48.892;9.544;2023-03-19T04:56:01;8.40;99.90
1468;DHT22;727;48.892;9.544;2023-03-19T04:58:29;8.40;99.90
1468;DHT22;727;48.892;9.544;2023-03-19T05:00:58;8.40;99.90
1468;DHT22;727;48.892;9.544;2023-03-19T05:03:25;8.30;99.90
1468;DHT22;727;48.892;9.544;2023-03-19T05:05:52;8.40;99.90
1468;DHT22;727;48.892;9.544;2023-03-19T05:08:19;8.30;99.90
1468;DHT22;727;48.892;9.544;2023-03-19T05:10:46;8.30;99.90
1468;DHT22;727;48.892;9.544;2023-03-19T05:13:13;8.30;99.90
1468;DHT22;727;48.892;9.544;2023-03-19T05:15:42;8.30;99.90
1468;DHT22;727;48.892;9.544;2023-03-19T05:18:09;8.30;99.90
1468;DHT22;727;48.892;9.544;2023-03-19T05:20:36;8.20;99.90
1468;DHT22;727;48.892;9.544;2023-03-19T05:23:05;8.20;99.90
1468;DHT22;727;48.892;9.544;2023-03-19T05:25:33;8.20;99.90
1468;DHT22;727;48.892;9.544;2023-03-19T05:28:01;8.20;99.90
1468;DHT22;727;48.892;9.544;2023-03-19T05:30:28;8.20;99.90
1468;DHT22;727;48.892;9.544;2023-03-19T05:32:56;8.20;99.90
1468;DHT22;727;48.892;9.544;2023-03-19T05:35:23;8.20;99.90
1468;DHT22;727;48.892;9.544;2023-03-19T05:37:49;8.20;99.90
1468;DHT22;727;48.892;9.544;2023-03-19T05:40:16;8.20;99.90
1468;DHT22;727;48.892;9.544;2023-03-19T05:42:43;8.30;99.90
1468;DHT22;727;48.892;9.544;2023-03-19T05:45:10;8.30;99.90
1468;DHT22;727;48.892;9.544;2023-03-19T05:47:37;8.30;99.90
1468;DHT22;727;48.892;9.544;2023-03-19T05:50:06;8.30;99.90
1468;DHT22;727;48.892;9.544;2023-03-19T05:52:34;8.30;99.90
1468;DHT22;727;48.892;9.544;2023-03-19T05:55:01;8.30;99.90
1468;DHT22;727;48.892;9.544;2023-03-19T05:57:30;8.40;99.90
1468;DHT22;727;48.892;9.544;2023-03-19T05:59:56;8.40;99.90
1468;DHT22;727;48.892;9.544;2023-03-19T06:02:23;8.40;99.90
1468;DHT22;727;48.892;9.544;2023-03-19T06:04:50;8.40;99.90
1468;DHT22;727;48.892;9.544;2023-03-19T06:07:18;8.40;99.90
1468;DHT22;727;48.892;9.544;2023-03-19T06:09:45;8.40;99.90
1468;DHT22;727;48.892;9.544;2023-03-19T06:12:12;8.50;99.90
1468;DHT22;727;48.892;9.544;2023-03-19T06:14:39;8.50;99.90
1468;DHT22;727;48.892;9.544;2023-03-19T06:17:06;8.50;99.90
1468;DHT22;727;48.892;9.544;2023-03-19T06:19:33;8.50;99.90
1468;DHT22;727;48.892;9.544;2023-03-19T06:22:00;8.50;99.90
1468;DHT22;727;48.892;9.544;2023-03-19T06:24:28;8.50;99.90
1468;DHT22;727;48.892;9.544;2023-03-19T06:26:55;8.50;99.90
1468;DHT22;727;48.892;9.544;2023-03-19T06:29:22;8.60;99.90
1468;DHT22;727;48.892;9.544;2023-03-19T06:31:48;8.70;99.90
1468;DHT22;727;48.892;9.544;2023-03-19T06:34:15;8.70;99.90
1468;DHT22;727;48.892;9.544;2023-03-19T06:36:42;8.70;99.90
1468;DHT22;727;48.892;9.544;2023-03-19T06:39:09;8.70;99.90
1468;DHT22;727;48.892;9.544;2023-03-19T06:41:41;8.80;99.90
1468;DHT22;727;48.892;9.544;2023-03-19T06:44:08;8.80;99.90
1468;DHT22;727;48.892;9.544;2023-03-19T06:46:34;8.80;99.90
1468;DHT22;727;48.892;9.544;2023-03-19T06:49:01;8.80;99.90
1468;DHT22;727;48.892;9.544;2023-03-19T06:51:28;8.80;99.90
1468;DHT22;727;48.892;9.544;2023-03-19T06:53:55;8.90;99.90
1468;DHT22;727;48.892;9.544;2023-03-19T06:56:22;8.90;99.90
1468;DHT22;727;48.892;9.544;2023-03-19T06:58:50;9.00;99.90
1468;DHT22;727;48.892;9.544;2023-03-19T07:01:17;9.20;99.90
1468;DHT22;727;48.892;9.544;2023-03-19T07:03:44;9.20;99.90
1468;DHT22;727;48.892;9.544;2023-03-19T07:06:11;9.30;99.90
1468;DHT22;727;48.892;9.544;2023-03-19T07:08:37;9.40;99.90
1468;DHT22;727;48.892;9.544;2023-03-19T07:11:05;9.40;99.90
1468;DHT22;727;48.892;9.544;2023-03-19T07:13:32;9.60;99.90
1468;DHT22;727;48.892;9.544;2023-03-19T07:16:00;9.70;99.90
1468;DHT22;727;48.892;9.544;2023-03-19T07:18:27;9.80;99.90
1468;DHT22;727;48.892;9.544;2023-03-19T07:20:53;9.90;99.90
1468;DHT22;727;48.892;9.544;2023-03-19T07:23:20;9.90;99.90
1468;DHT22;727;48.892;9.544;2023-03-19T07:25:49;10.00;99.90
1468;DHT22;727;48.892;9.544;2023-03-19T07:28:15;10.20;99.90
1468;DHT22;727;48.892;9.544;2023-03-19T07:30:42;10.30;99.90
1468;DHT22;727;48.892;9.544;2023-03-19T07:33:10;10.30;99.90
1468;DHT22;727;48.892;9.544;2023-03-19T07:35:37;10.50;99.90
1468;DHT22;727;48.892;9.544;2023-03-19T07:38:04;10.60;99.90
1468;DHT22;727;48.892;9.544;2023-03-19T07:40:30;10.70;99.90
1468;DHT22;727;48.892;9.544;2023-03-19T07:42:57;10.90;99.90
1468;DHT22;727;48.892;9.544;2023-03-19T07:45:24;11.20;99.90
1468;DHT22;727;48.892;9.544;2023-03-19T07:47:51;11.50;99.90
1468;DHT22;727;48.892;9.544;2023-03-19T07:50:19;12.10;99.90
1468;DHT22;727;48.892;9.544;2023-03-19T07:52:46;12.50;99.90
1468;DHT22;727;48.892;9.544;2023-03-19T07:55:14;12.70;99.90
1468;DHT22;727;48.892;9.544;2023-03-19T07:57:40;12.80;99.90
1468;DHT22;727;48.892;9.544;2023-03-19T08:00:08;12.90;99.90
1468;DHT22;727;48.892;9.544;2023-03-19T08:02:36;12.80;99.90
1468;DHT22;727;48.892;9.544;2023-03-19T08:05:03;12.70;99.90
1468;DHT22;727;48.892;9.544;2023-03-19T08:07:31;12.60;99.90
1468;DHT22;727;48.892;9.544;2023-03-19T08:09:58;12.60;99.90
1468;DHT22;727;48.892;9.544;2023-03-19T08:12:25;12.70;99.90
1468;DHT22;727;48.892;9.544;2023-03-19T08:14:51;12.60;99.90
1468;DHT22;727;48.892;9.544;2023-03-19T08:17:19;12.80;99.90
1468;DHT22;727;48.892;9.544;2023-03-19T08:19:45;12.80;99.90
1468;DHT22;727;48.892;9.544;2023-03-19T08:22:12;12.80;99.90
1468;DHT22;727;48.892;9.544;2023-03-19T08:24:40;12.70;99.90
1468;DHT22;727;48.892;9.544;2023-03-19T08:27:07;12.70;99.90
1468;DHT22;727;48.892;9.544;2023-03-19T08:29:34;12.70;99.90
1468;DHT22;727;48.892;9.544;2023-03-19T08:32:01;12.60;99.90
1468;DHT22;727;48.892;9.544;2023-03-19T08:34:28;12.70;99.90
1468;DHT22;727;48.892;9.544;2023-03-19T08:36:55;12.70;99.90
1468;DHT22;727;48.892;9.544;2023-03-19T08:39:22;12.90;99.90
1468;DHT22;727;48.892;9.544;2023-03-19T08:41:50;12.90;99.90
1468;DHT22;727;48.892;9.544;2023-03-19T08:44:17;13.00;99.90
1468;DHT22;727;48.892;9.544;2023-03-19T08:46:43;13.00;99.90
1468;DHT22;727;48.892;9.544;2023-03-19T08:49:10;13.00;99.90
1468;DHT22;727;48.892;9.544;2023-03-19T08:51:37;13.10;99.90
1468;DHT22;727;48.892;9.544;2023-03-19T08:54:05;13.30;99.90
1468;DHT22;727;48.892;9.544;2023-03-19T08:56:32;13.50;99.90
1468;DHT22;727;48.892;9.544;2023-03-19T08:59:00;13.70;99.90
1468;DHT22;727;48.892;9.544;2023-03-19T09:01:27;13.80;99.90
1468;DHT22;727;48.892;9.544;2023-03-19T09:03:53;13.90;99.90
1468;DHT22;727;48.892;9.544;2023-03-19T09:06:20;13.80;99.90
1468;DHT22;727;48.892;9.544;2023-03-19T09:08:47;13.80;99.90
1468;DHT22;727;48.892;9.544;2023-03-19T09:11:14;13.90;99.90
1468;DHT22;727;48.892;9.544;2023-03-19T09:13:41;13.90;99.90
1468;DHT22;727;48.892;9.544;2023-03-19T09:16:10;14.00;99.90
1468;DHT22;727;48.892;9.544;2023-03-19T09:18:36;14.00;99.90
1468;DHT22;727;48.892;9.544;2023-03-19T09:21:03;14.00;99.90
1468;DHT22;727;48.892;9.544;2023-03-19T09:23:30;14.00;99.90
1468;DHT22;727;48.892;9.544;2023-03-19T09:25:57;14.10;99.90
1468;DHT22;727;48.892;9.544;2023-03-19T09:28:24;14.20;99.90
1468;DHT22;727;48.892;9.544;2023-03-19T09:30:53;14.40;99.90
1468;DHT22;727;48.892;9.544;2023-03-19T09:33:21;14.60;99.90
1468;DHT22;727;48.892;9.544;2023-03-19T09:35:49;14.90;99.90
1468;DHT22;727;48.892;9.544;2023-03-19T09:38:17;15.20;99.90
1468;DHT22;727;48.892;9.544;2023-03-19T09:40:46;15.40;99.90
1468;DHT22;727;48.892;9.544;2023-03-19T09:43:33;16.00;99.90
1468;DHT22;727;48.892;9.544;2023-03-19T09:46:09;16.50;98.50
1468;DHT22;727;48.892;9.544;2023-03-19T09:48:44;17.10;96.20
1468;DHT22;727;48.892;9.544;2023-03-19T09:51:17;17.60;95.50
1468;DHT22;727;48.892;9.544;2023-03-19T09:53:49;17.80;93.80
1468;DHT22;727;48.892;9.544;2023-03-19T09:56:17;18.20;93.30
1468;DHT22;727;48.892;9.544;2023-03-19T09:58:44;18.50;93.70
1468;DHT22;727;48.892;9.544;2023-03-19T10:01:22;18.90;92.60
1468;DHT22;727;48.892;9.544;2023-03-19T10:04:03;19.70;90.70
1468;DHT22;727;48.892;9.544;2023-03-19T10:06:33;20.80;90.80
1468;DHT22;727;48.892;9.544;2023-03-19T10:09:16;21.80;85.60
1468;DHT22;727;48.892;9.544;2023-03-19T10:11:57;22.20;81.90
1468;DHT22;727;48.892;9.544;2023-03-19T10:14:41;23.00;77.10
1468;DHT22;727;48.892;9.544;2023-03-19T10:17:13;23.00;75.20
1468;DHT22;727;48.892;9.544;2023-03-19T10:19:48;23.70;72.00
1468;DHT22;727;48.892;9.544;2023-03-19T10:22:22;24.20;70.20
1468;DHT22;727;48.892;9.544;2023-03-19T10:24:49;24.90;65.50
1468;DHT22;727;48.892;9.544;2023-03-19T10:27:21;25.70;61.20
1468;DHT22;727;48.892;9.544;2023-03-19T10:29:48;25.90;58.10
1468;DHT22;727;48.892;9.544;2023-03-19T10:32:17;25.80;58.40
1468;DHT22;727;48.892;9.544;2023-03-19T10:34:47;25.70;57.00
1468;DHT22;727;48.892;9.544;2023-03-19T10:37:16;25.50;55.60
1468;DHT22;727;48.892;9.544;2023-03-19T10:39:46;25.60;54.30
1468;DHT22;727;48.892;9.544;2023-03-19T10:42:25;25.60;53.60
1468;DHT22;727;48.892;9.544;2023-03-19T10:45:01;25.50;53.20
1468;DHT22;727;48.892;9.544;2023-03-19T10:47:36;25.20;54.40
1468;DHT22;727;48.892;9.544;2023-03-19T10:50:06;25.10;53.80
1468;DHT22;727;48.892;9.544;2023-03-19T10:52:34;25.40;53.30
1468;DHT22;727;48.892;9.544;2023-03-19T10:55:04;25.80;51.50
1468;DHT22;727;48.892;9.544;2023-03-19T10:57:32;26.00;51.80
1468;DHT22;727;48.892;9.544;2023-03-19T11:00:01;26.50;50.20
1468;DHT22;727;48.892;9.544;2023-03-19T11:02:29;27.20;49.40
1468;DHT22;727;48.892;9.544;2023-03-19T11:05:07;27.20;48.20
1468;DHT22;727;48.892;9.544;2023-03-19T11:07:48;27.30;47.70
1468;DHT22;727;48.892;9.544;2023-03-19T11:10:18;27.80;46.00
1468;DHT22;727;48.892;9.544;2023-03-19T11:12:47;28.00;45.60
1468;DHT22;727;48.892;9.544;2023-03-19T11:15:19;27.30;45.50
1468;DHT22;727;48.892;9.544;2023-03-19T11:17:49;26.60;46.20
1468;DHT22;727;48.892;9.544;2023-03-19T11:20:26;26.40;47.70
1468;DHT22;727;48.892;9.544;2023-03-19T11:22:55;26.30;47.00
1468;DHT22;727;48.892;9.544;2023-03-19T11:25:27;25.70;47.80
1468;DHT22;727;48.892;9.544;2023-03-19T11:27:59;24.50;48.90
1468;DHT22;727;48.892;9.544;2023-03-19T11:30:32;23.90;50.40
1468;DHT22;727;48.892;9.544;2023-03-19T11:36:21;23.50;51.30
1468;DHT22;727;48.892;9.544;2023-03-19T11:39:00;22.80;51.40
1468;DHT22;727;48.892;9.544;2023-03-19T11:41:39;22.60;52.60
1468;DHT22;727;48.892;9.544;2023-03-19T11:44:14;22.80;52.30
1468;DHT22;727;48.892;9.544;2023-03-19T11:46:48;22.50;52.60
1468;DHT22;727;48.892;9.544;2023-03-19T11:49:35;23.20;52.80
1468;DHT22;727;48.892;9.544;2023-03-19T11:52:12;23.90;50.60
1468;DHT22;727;48.892;9.544;2023-03-19T11:54:49;23.80;50.40
1468;DHT22;727;48.892;9.544;2023-03-19T11:57:26;24.00;50.10
1468;DHT22;727;48.892;9.544;2023-03-19T12:00:07;23.60;50.60
1468;DHT22;727;48.892;9.544;2023-03-19T12:03:14;22.50;52.80
1468;DHT22;727;48.892;9.544;2023-03-19T12:05:50;21.90;53.40
1468;DHT22;727;48.892;9.544;2023-03-19T12:08:30;21.40;54.40
1468;DHT22;727;48.892;9.544;2023-03-19T12:11:06;21.50;54.80
1468;DHT22;727;48.892;9.544;2023-03-19T12:13:44;21.80;54.40
1468;DHT22;727;48.892;9.544;2023-03-19T12:16:19;22.10;55.20
1468;DHT22;727;48.892;9.544;2023-03-19T12:19:12;22.30;53.80
1468;DHT22;727;48.892;9.544;2023-03-19T12:21:50;22.20;53.70
1468;DHT22;727;48.892;9.544;2023-03-19T12:24:28;21.90;54.10
1468;DHT22;727;48.892;9.544;2023-03-19T12:27:04;21.50;54.30
1468;DHT22;727;48.892;9.544;2023-03-19T12:29:40;21.20;55.00
1468;DHT22;727;48.892;9.544;2023-03-19T12:32:21;20.80;55.60
1468;DHT22;727;48.892;9.544;2023-03-19T12:34:54;20.40;57.20
1468;DHT22;727;48.892;9.544;2023-03-19T12:37:26;20.50;56.80
1468;DHT22;727;48.892;9.544;2023-03-19T12:40:05;20.60;56.60
1468;DHT22;727;48.892;9.544;2023-03-19T12:42:39;20.60;56.90
1468;DHT22;727;48.892;9.544;2023-03-19T12:45:18;20.70;56.20
1468;DHT22;727;48.892;9.544;2023-03-19T12:47:49;20.70;55.80
1468;DHT22;727;48.892;9.544;2023-03-19T12:50:18;20.80;55.80
1468;DHT22;727;48.892;9.544;2023-03-19T12:52:48;21.00;55.40
1468;DHT22;727;48.892;9.544;2023-03-19T12:55:19;21.10;55.10
1468;DHT22;727;48.892;9.544;2023-03-19T12:57:48;21.50;54.50
1468;DHT22;727;48.892;9.544;2023-03-19T13:00:20;21.40;54.50
1468;DHT22;727;48.892;9.544;2023-03-19T13:02:52;21.30;55.30
1468;DHT22;727;48.892;9.544;2023-03-19T13:05:28;21.20;54.90
1468;DHT22;727;48.892;9.544;2023-03-19T13:08:00;21.10;55.00
1468;DHT22;727;48.892;9.544;2023-03-19T13:10:31;20.80;54.40
1468;DHT22;727;48.892;9.544;2023-03-19T13:13:04;20.40;56.30
1468;DHT22;727;48.892;9.544;2023-03-19T13:15:39;20.60;55.50
1468;DHT22;727;48.892;9.544;2023-03-19T13:18:21;21.00;54.00
1468;DHT22;727;48.892;9.544;2023-03-19T13:21:00;21.90;53.50
1468;DHT22;727;48.892;9.544;2023-03-19T13:23:31;22.90;51.00
1468;DHT22;727;48.892;9.544;2023-03-19T13:26:06;23.30;49.90
1468;DHT22;727;48.892;9.544;2023-03-19T13:28:36;23.80;50.20
1468;DHT22;727;48.892;9.544;2023-03-19T13:31:05;23.50;50.10
1468;DHT22;727;48.892;9.544;2023-03-19T13:33:33;23.20;48.90
1468;DHT22;727;48.892;9.544;2023-03-19T13:36:03;22.60;49.80
1468;DHT22;727;48.892;9.544;2023-03-19T13:38:37;21.70;51.70
1468;DHT22;727;48.892;9.544;2023-03-19T13:44:28;20.30;54.50
1468;DHT22;727;48.892;9.544;2023-03-19T13:47:01;19.90;55.60
1468;DHT22;727;48.892;9.544;2023-03-19T13:49:33;19.70;56.20
1468;DHT22;727;48.892;9.544;2023-03-19T13:55:47;19.20;60.10
1468;DHT22;727;48.892;9.544;2023-03-19T13:58:22;18.50;63.00
1468;DHT22;727;48.892;9.544;2023-03-19T14:01:11;18.20;64.20
1468;DHT22;727;48.892;9.544;2023-03-19T14:04:00;18.10;65.80
1468;DHT22;727;48.892;9.544;2023-03-19T14:06:32;17.80;65.50
1468;DHT22;727;48.892;9.544;2023-03-19T14:09:00;17.60;66.20
1468;DHT22;727;48.892;9.544;2023-03-19T14:11:30;17.20;66.50
1468;DHT22;727;48.892;9.544;2023-03-19T14:14:00;17.00;68.00
1468;DHT22;727;48.892;9.544;2023-03-19T14:16:30;16.70;70.50
1468;DHT22;727;48.892;9.544;2023-03-19T14:19:01;16.40;72.60
1468;DHT22;727;48.892;9.544;2023-03-19T14:21:34;16.30;75.30
1468;DHT22;727;48.892;9.544;2023-03-19T14:24:28;16.10;77.10
1468;DHT22;727;48.892;9.544;2023-03-19T14:26:59;16.10;78.50
1468;DHT22;727;48.892;9.544;2023-03-19T14:29:27;16.00;81.60
1468;DHT22;727;48.892;9.544;2023-03-19T14:31:57;15.90;83.30
1468;DHT22;727;48.892;9.544;2023-03-19T14:34:31;15.70;84.20
1468;DHT22;727;48.892;9.544;2023-03-19T14:37:01;15.50;85.80
1468;DHT22;727;48.892;9.544;2023-03-19T14:39:31;15.20;89.10
1468;DHT22;727;48.892;9.544;2023-03-19T14:42:03;14.90;90.00
1468;DHT22;727;48.892;9.544;2023-03-19T14:45:00;14.70;90.40
1468;DHT22;727;48.892;9.544;2023-03-19T14:47:47;14.40;91.00
1468;DHT22;727;48.892;9.544;2023-03-19T14:50:54;14.50;91.60
1468;DHT22;727;48.892;9.544;2023-03-19T14:53:33;14.70;91.70
1468;DHT22;727;48.892;9.544;2023-03-19T14:56:10;14.80;91.20
1468;DHT22;727;48.892;9.544;2023-03-19T14:58:47;14.90;90.90
1468;DHT22;727;48.892;9.544;2023-03-19T15:01:14;15.00;90.70
1468;DHT22;727;48.892;9.544;2023-03-19T15:03:41;15.00;90.60
1468;DHT22;727;48.892;9.544;2023-03-19T15:06:12;15.10;90.90
1468;DHT22;727;48.892;9.544;2023-03-19T15:08:40;15.20;90.60
1468;DHT22;727;48.892;9.544;2023-03-19T15:11:41;15.40;90.10
1468;DHT22;727;48.892;9.544;2023-03-19T15:14:22;15.50;90.30
1468;DHT22;727;48.892;9.544;2023-03-19T15:16:58;15.50;90.40
1468;DHT22;727;48.892;9.544;2023-03-19T15:19:30;15.60;90.00
1468;DHT22;727;48.892;9.544;2023-03-19T15:22:11;15.60;90.20
1468;DHT22;727;48.892;9.544;2023-03-19T15:24:38;15.70;88.80
1468;DHT22;727;48.892;9.544;2023-03-19T15:27:19;15.60;87.20
1468;DHT22;727;48.892;9.544;2023-03-19T15:29:46;15.60;86.80
1468;DHT22;727;48.892;9.544;2023-03-19T15:32:29;15.60;87.40
1468;DHT22;727;48.892;9.544;2023-03-19T15:34:56;15.60;88.70
1468;DHT22;727;48.892;9.544;2023-03-19T15:37:26;15.60;87.00
1468;DHT22;727;48.892;9.544;2023-03-19T15:39:56;15.50;85.60
1468;DHT22;727;48.892;9.544;2023-03-19T15:42:26;15.40;87.70
1468;DHT22;727;48.892;9.544;2023-03-19T15:44:58;15.30;88.60
1468;DHT22;727;48.892;9.544;2023-03-19T15:47:30;15.20;87.90
1468;DHT22;727;48.892;9.544;2023-03-19T15:50:08;15.10;89.40
1468;DHT22;727;48.892;9.544;2023-03-19T15:52:51;15.20;90.00
1468;DHT22;727;48.892;9.544;2023-03-19T15:55:19;15.00;90.40
1468;DHT22;727;48.892;9.544;2023-03-19T15:57:47;15.00;90.50
1468;DHT22;727;48.892;9.544;2023-03-19T16:00:14;14.90;90.90
1468;DHT22;727;48.892;9.544;2023-03-19T16:02:43;14.80;91.20
1468;DHT22;727;48.892;9.544;2023-03-19T16:05:25;14.80;91.60
1468;DHT22;727;48.892;9.544;2023-03-19T16:07:54;14.70;91.70
1468;DHT22;727;48.892;9.544;2023-03-19T16:10:33;14.70;92.00
1468;DHT22;727;48.892;9.544;2023-03-19T16:13:01;14.70;92.20
1468;DHT22;727;48.892;9.544;2023-03-19T16:15:39;14.70;92.30
1468;DHT22;727;48.892;9.544;2023-03-19T16:18:24;14.70;92.30
1468;DHT22;727;48.892;9.544;2023-03-19T16:21:02;14.70;92.60
1468;DHT22;727;48.892;9.544;2023-03-19T16:23:35;14.70;92.90
1468;DHT22;727;48.892;9.544;2023-03-19T16:26:06;14.70;93.10
1468;DHT22;727;48.892;9.544;2023-03-19T16:28:40;14.80;92.80
1468;DHT22;727;48.892;9.544;2023-03-19T16:31:18;14.70;92.90
1468;DHT22;727;48.892;9.544;2023-03-19T16:33:45;14.70;92.80
1468;DHT22;727;48.892;9.544;2023-03-19T16:36:12;14.70;93.00
1468;DHT22;727;48.892;9.544;2023-03-19T16:38:52;14.60;93.30
1468;DHT22;727;48.892;9.544;2023-03-19T16:41:24;14.50;93.50
1468;DHT22;727;48.892;9.544;2023-03-19T16:43:52;14.40;94.10
1468;DHT22;727;48.892;9.544;2023-03-19T16:46:19;14.20;93.70
1468;DHT22;727;48.892;9.544;2023-03-19T16:48:46;14.10;93.60
1468;DHT22;727;48.892;9.544;2023-03-19T16:51:15;13.90;94.20
1468;DHT22;727;48.892;9.544;2023-03-19T16:53:43;13.80;94.70